createdAt,value
2018-06-23T00:01:24.752Z,12.90
2018-06-23T00:05:28.698Z,13.10
2018-06-23T00:09:32.528Z,13.50
2018-06-23T00:13:36.483Z,13.50
2018-06-23T00:17:40.018Z,13.40
2018-06-23T00:25:54.723Z,13.20
2018-06-23T00:29:58.399Z,13.00
2018-06-23T00:34:02.122Z,12.70
2018-06-23T00:38:06.005Z,13.00
2018-06-23T00:42:09.522Z,12.70
2018-06-23T00:46:13.115Z,12.50
2018-06-23T00:50:16.658Z,12.10
2018-06-23T00:54:20.429Z,12.10
2018-06-23T00:58:23.932Z,12.20
2018-06-23T01:02:27.481Z,12.20
2018-06-23T01:06:31.264Z,12.10
2018-06-23T01:10:35.019Z,12.10
2018-06-23T01:14:38.712Z,12.10
2018-06-23T01:18:42.270Z,12.20
2018-06-23T01:22:45.802Z,12.40
2018-06-23T01:26:49.386Z,12.30
2018-06-23T01:30:53.114Z,12.70
2018-06-23T01:34:56.848Z,12.80
2018-06-23T01:39:01.188Z,13.30
2018-06-23T01:43:05.074Z,13.10
2018-06-23T01:51:18.249Z,12.80
2018-06-23T01:55:21.863Z,12.80
2018-06-23T01:59:26.502Z,12.20
2018-06-23T02:03:30.247Z,12.00
2018-06-23T02:07:34.018Z,12.00
2018-06-23T02:11:37.639Z,12.10
2018-06-23T02:15:46.769Z,12.00
2018-06-23T02:19:55.662Z,11.80
2018-06-23T02:24:04.699Z,11.60
2018-06-23T02:28:13.787Z,11.80
2018-06-23T02:32:22.500Z,12.10
2018-06-23T02:36:26.029Z,12.40
2018-06-23T02:40:29.837Z,12.30
2018-06-23T02:44:33.559Z,12.40
2018-06-23T02:48:37.394Z,12.00
2018-06-23T02:52:40.954Z,12.00
2018-06-23T02:56:44.558Z,12.20
2018-06-23T03:00:48.326Z,12.40
2018-06-23T03:04:52.304Z,12.70
2018-06-23T03:08:55.798Z,12.60
2018-06-23T03:12:59.599Z,12.30
2018-06-23T03:17:03.554Z,12.10
2018-06-23T03:21:07.286Z,12.00
2018-06-23T03:25:10.782Z,12.10
2018-06-23T03:29:14.695Z,12.40
2018-06-23T03:33:28.620Z,12.60
2018-06-23T03:37:32.440Z,12.60
2018-06-23T03:41:36.081Z,12.60
2018-06-23T03:45:39.634Z,12.90
2018-06-23T03:49:43.193Z,13.20
2018-06-23T03:53:50.404Z,13.20
2018-06-23T03:57:54.118Z,13.00
2018-06-23T04:01:57.703Z,13.40
2018-06-23T04:06:01.398Z,13.20
2018-06-23T04:10:05.598Z,13.40
2018-06-23T04:14:09.393Z,13.20
2018-06-23T04:18:13.039Z,13.00
2018-06-23T04:22:16.558Z,12.80
2018-06-23T04:26:20.219Z,13.00
2018-06-23T04:30:25.123Z,13.00
2018-06-23T04:34:28.802Z,12.70
2018-06-23T04:38:32.867Z,12.80
2018-06-23T04:42:37.250Z,13.10
2018-06-23T04:46:40.791Z,13.00
2018-06-23T04:50:44.738Z,13.30
2018-06-23T04:54:48.287Z,13.90
2018-06-23T04:58:51.847Z,13.20
2018-06-23T05:02:56.591Z,13.20
2018-06-23T05:07:00.801Z,13.30
2018-06-23T05:11:04.465Z,13.70
2018-06-23T05:15:08.035Z,13.70
2018-06-23T05:19:11.622Z,13.50
2018-06-23T05:23:15.271Z,12.90
2018-06-23T05:27:19.049Z,12.70
2018-06-23T05:31:22.727Z,12.80
2018-06-23T05:35:27.934Z,13.00
2018-06-23T05:39:32.098Z,13.00
2018-06-23T05:43:35.755Z,12.90
2018-06-23T05:47:39.484Z,13.00
2018-06-23T05:51:42.987Z,13.20
2018-06-23T05:55:46.535Z,13.60
2018-06-23T05:59:50.032Z,14.00
2018-06-23T06:03:54.838Z,14.10
2018-06-23T06:07:58.486Z,14.00
2018-06-23T06:12:02.751Z,14.70
2018-06-23T06:16:06.566Z,14.80
2018-06-23T06:20:12.376Z,14.60
2018-06-23T06:24:15.993Z,14.80
2018-06-23T06:28:19.684Z,15.00
2018-06-23T06:32:23.716Z,15.20
2018-06-23T06:36:27.282Z,15.00
2018-06-23T06:40:30.994Z,14.90
2018-06-23T06:44:35.810Z,14.60
2018-06-23T06:48:39.294Z,15.00
2018-06-23T06:52:42.899Z,15.70
2018-06-23T06:56:49.455Z,17.60
2018-06-23T07:00:53.146Z,19.20
2018-06-23T07:04:56.819Z,20.50
2018-06-23T07:09:01.744Z,21.30
2018-06-23T07:13:07.880Z,20.90
2018-06-23T07:17:11.603Z,22.30
2018-06-23T07:21:15.263Z,22.70
2018-06-23T07:25:18.958Z,23.00
2018-06-23T07:29:22.540Z,22.70
2018-06-23T07:33:26.103Z,22.50
2018-06-23T07:37:30.666Z,22.40
2018-06-23T07:41:36.946Z,22.70
2018-06-23T07:45:42.540Z,23.30
2018-06-23T07:49:46.538Z,23.30
2018-06-23T07:53:50.423Z,21.70
2018-06-23T07:57:54.310Z,20.90
2018-06-23T08:02:02.173Z,20.10
2018-06-23T08:06:06.222Z,20.00
2018-06-23T08:10:10.427Z,19.90
2018-06-23T08:14:17.789Z,19.70
2018-06-23T08:18:21.337Z,19.90
2018-06-23T08:22:25.391Z,19.90
2018-06-23T08:26:29.393Z,19.90
2018-06-23T08:30:35.186Z,19.20
2018-06-23T08:34:38.890Z,18.70
2018-06-23T08:38:43.064Z,18.50
2018-06-23T08:42:46.943Z,18.30
2018-06-23T08:46:50.770Z,18.00
2018-06-23T08:50:54.353Z,17.90
2018-06-23T08:59:01.789Z,18.00
2018-06-23T09:03:06.623Z,18.00
2018-06-23T09:07:10.584Z,17.90
2018-06-23T09:11:16.861Z,17.90
2018-06-23T09:15:20.618Z,17.70
2018-06-23T09:19:24.242Z,17.40
2018-06-23T09:23:28.091Z,17.40
2018-06-23T09:27:31.781Z,17.50
2018-06-23T09:31:35.406Z,17.70
2018-06-23T09:35:50.556Z,17.80
2018-06-23T09:39:55.002Z,17.80
2018-06-23T09:43:58.776Z,18.20
2018-06-23T09:48:03.902Z,19.20
2018-06-23T09:52:07.830Z,19.20
2018-06-23T09:56:12.097Z,19.10
2018-06-23T10:00:17.666Z,18.60
2018-06-23T10:04:22.426Z,18.10
2018-06-23T10:08:26.114Z,17.90
2018-06-23T10:12:29.984Z,18.00
2018-06-23T10:16:34.062Z,18.00
2018-06-23T10:20:37.698Z,17.90
2018-06-23T10:24:41.543Z,17.70
2018-06-23T10:28:45.106Z,17.70
2018-06-23T10:32:49.046Z,17.70
2018-06-23T10:36:59.679Z,17.80
2018-06-23T10:41:03.418Z,17.70
2018-06-23T10:45:07.032Z,17.60
2018-06-23T10:49:10.594Z,17.60
2018-06-23T10:53:14.135Z,17.40
2018-06-23T10:57:18.886Z,17.40
2018-06-23T11:01:22.484Z,17.50
2018-06-23T11:05:26.155Z,17.50
2018-06-23T11:09:30.657Z,17.30
2018-06-23T11:13:34.770Z,17.20
2018-06-23T11:17:38.678Z,16.90
2018-06-23T11:21:43.349Z,17.40
2018-06-23T11:25:47.057Z,17.80
2018-06-23T11:29:50.811Z,18.40
2018-06-23T11:33:54.735Z,18.70
2018-06-23T11:38:00.724Z,18.60
2018-06-23T11:42:04.324Z,18.40
2018-06-23T11:46:08.926Z,18.40
2018-06-23T11:50:14.894Z,18.20
2018-06-23T11:54:20.586Z,18.20
2018-06-23T11:58:27.786Z,18.00
2018-06-23T12:02:33.421Z,18.40
2018-06-23T12:06:39.128Z,18.60
2018-06-23T12:10:48.427Z,18.60
2018-06-23T12:14:54.105Z,18.60
2018-06-23T12:18:58.156Z,18.70
2018-06-23T12:23:13.460Z,18.70
2018-06-23T12:27:22.933Z,18.30
2018-06-23T12:31:28.096Z,18.10
2018-06-23T12:35:32.719Z,18.20
2018-06-23T12:39:37.975Z,18.20
2018-06-23T12:43:41.873Z,18.00
2018-06-23T12:47:46.591Z,18.10
2018-06-23T12:51:51.341Z,18.10
2018-06-23T12:55:55.181Z,17.90
2018-06-23T12:59:58.898Z,18.00
2018-06-23T13:04:10.232Z,18.20
2018-06-23T13:08:14.284Z,18.30
2018-06-23T13:12:18.223Z,18.50
2018-06-23T13:16:22.335Z,18.50
2018-06-23T13:20:27.116Z,18.50
2018-06-23T13:33:27.833Z,18.80
2018-06-23T13:37:31.383Z,18.60
2018-06-23T13:41:35.379Z,18.50
2018-06-23T13:45:38.994Z,18.30
2018-06-23T13:49:49.643Z,18.20
2018-06-23T13:53:53.646Z,18.20
2018-06-23T13:57:58.571Z,18.40
2018-06-23T14:02:04.654Z,18.30
2018-06-23T14:06:09.560Z,18.20
2018-06-23T14:10:13.268Z,18.40
2018-06-23T14:14:22.657Z,18.40
2018-06-23T14:18:26.501Z,18.40
2018-06-23T14:22:30.518Z,18.50
2018-06-23T14:26:34.104Z,18.50
2018-06-23T14:30:38.213Z,18.70
2018-06-23T14:34:42.990Z,18.90
2018-06-23T14:38:46.670Z,19.00
2018-06-23T14:42:50.494Z,18.90
2018-06-23T14:46:54.567Z,18.80
2018-06-23T14:51:12.455Z,18.70
2018-06-23T14:55:16.583Z,18.60
2018-06-23T14:59:22.419Z,18.50
2018-06-23T15:03:26.283Z,18.30
2018-06-23T15:07:30.321Z,18.30
2018-06-23T15:11:48.750Z,18.40
2018-06-23T15:15:55.066Z,18.20
2018-06-23T15:20:02.386Z,18.10
2018-06-23T15:24:06.087Z,18.20
2018-06-23T15:28:10.442Z,18.10
2018-06-23T15:32:16.653Z,18.00
2018-06-23T15:36:21.041Z,17.80
2018-06-23T15:40:24.757Z,17.70
2018-06-23T15:44:28.371Z,17.80
2018-06-23T15:48:35.466Z,18.00
2018-06-23T15:52:42.347Z,17.80
2018-06-23T15:56:51.183Z,17.70
2018-06-23T16:00:56.071Z,17.60
2018-06-23T16:04:59.582Z,17.40
2018-06-23T16:09:03.222Z,17.40
2018-06-23T16:13:06.728Z,17.30
2018-06-23T16:17:10.414Z,17.50
2018-06-23T16:21:13.952Z,17.50
2018-06-23T16:25:17.678Z,17.50
2018-06-23T16:29:21.463Z,17.60
2018-06-23T16:33:25.259Z,17.60
2018-06-23T16:37:29.210Z,17.50
2018-06-23T16:41:35.791Z,17.50
2018-06-23T16:45:39.403Z,17.50
2018-06-23T16:49:43.020Z,17.50
2018-06-23T16:53:46.802Z,17.50
2018-06-23T16:57:50.534Z,17.40
2018-06-23T17:01:59.782Z,17.50
2018-06-23T17:06:03.458Z,17.50
2018-06-23T17:10:07.175Z,17.30
2018-06-23T17:14:15.107Z,17.30
2018-06-23T17:18:18.702Z,17.20
2018-06-23T17:22:24.693Z,17.20
2018-06-23T17:26:30.681Z,17.10
2018-06-23T17:30:36.029Z,17.20
2018-06-23T17:34:40.846Z,17.00
2018-06-23T17:38:50.270Z,17.00
2018-06-23T17:42:54.141Z,16.90
2018-06-23T17:46:57.810Z,17.00
2018-06-23T17:51:01.454Z,17.10
2018-06-23T17:55:05.041Z,17.00
2018-06-23T18:03:12.185Z,17.00
2018-06-23T18:07:26.923Z,17.00
2018-06-23T18:11:41.679Z,17.00
2018-06-23T18:15:47.334Z,16.70
2018-06-23T18:19:51.629Z,16.70
2018-06-23T18:23:55.196Z,16.60
2018-06-23T18:28:00.614Z,16.70
2018-06-23T18:32:04.291Z,16.60
2018-06-23T18:36:07.913Z,16.30
2018-06-23T18:40:12.346Z,16.30
2018-06-23T18:44:38.189Z,16.20
2018-06-23T18:48:55.425Z,16.20
2018-06-23T18:52:59.214Z,16.10
2018-06-23T19:01:44.727Z,16.00
2018-06-23T19:05:48.482Z,15.90
2018-06-23T19:09:52.832Z,15.90
2018-06-23T19:14:02.195Z,15.80
2018-06-23T19:18:07.087Z,15.70
2018-06-23T19:22:10.643Z,15.60
2018-06-23T19:26:15.378Z,15.50
2018-06-23T19:30:19.201Z,15.30
2018-06-23T19:34:22.910Z,15.20
2018-06-23T19:38:29.870Z,15.10
2018-06-23T19:42:33.963Z,15.10
2018-06-23T19:46:37.635Z,14.90
2018-06-23T19:50:43.306Z,14.80
2018-06-23T19:54:46.836Z,14.70
2018-06-23T19:58:56.108Z,14.60
2018-06-23T20:02:59.672Z,14.50
2018-06-23T20:07:10.426Z,14.20
2018-06-23T20:11:14.591Z,14.20
2018-06-23T20:15:18.521Z,14.10
2018-06-23T20:19:24.108Z,13.90
2018-06-23T20:23:27.791Z,13.90
2018-06-23T20:27:31.482Z,13.90
2018-06-23T20:31:36.371Z,13.80
2018-06-23T20:35:44.595Z,13.70
2018-06-23T20:44:16.491Z,13.60
2018-06-23T20:48:23.795Z,13.40
2018-06-23T20:52:27.638Z,13.50
2018-06-23T20:56:31.519Z,13.40
2018-06-23T21:00:35.283Z,13.30
2018-06-23T21:08:44.228Z,13.30
2018-06-23T21:12:48.045Z,13.20
2018-06-23T21:16:51.758Z,13.10
2018-06-23T21:20:59.196Z,13.20
2018-06-23T21:25:02.793Z,13.20
2018-06-23T21:29:18.418Z,13.30
2018-06-23T21:33:26.279Z,13.30
2018-06-23T21:37:30.282Z,13.30
2018-06-23T21:41:38.540Z,13.30
2018-06-23T21:45:42.399Z,13.20
2018-06-23T21:49:55.142Z,13.30
2018-06-23T21:53:58.966Z,13.30
2018-06-23T21:58:02.733Z,13.30
2018-06-23T22:02:16.399Z,13.20
2018-06-23T22:06:28.156Z,13.10
2018-06-23T22:10:44.261Z,13.10
2018-06-23T22:14:48.763Z,13.00
2018-06-23T22:18:52.514Z,12.90
2018-06-23T22:22:56.701Z,12.90
2018-06-23T22:27:03.180Z,12.80
2018-06-23T22:31:06.935Z,12.90
2018-06-23T22:35:10.879Z,12.90
2018-06-23T22:39:14.622Z,12.80
2018-06-23T22:43:20.324Z,12.70
2018-06-23T22:47:27.688Z,12.60
2018-06-23T22:51:31.660Z,12.60
2018-06-23T22:55:36.190Z,12.60
2018-06-23T22:59:39.726Z,12.50
2018-06-23T23:03:43.346Z,12.40
2018-06-23T23:07:47.123Z,12.40
2018-06-23T23:11:50.682Z,12.40
2018-06-23T23:15:54.497Z,12.30
2018-06-23T23:20:00.603Z,12.30
2018-06-23T23:24:07.178Z,12.20
2018-06-23T23:32:13.990Z,12.10
2018-06-23T23:36:18.854Z,12.10
2018-06-23T23:40:33.384Z,12.10
2018-06-23T23:44:38.069Z,12.10
2018-06-23T23:48:41.836Z,12.00
2018-06-23T23:52:45.358Z,11.90
2018-06-23T23:56:51.039Z,11.90
